sensor_id;sensor_type;location;lat;lon;timestamp;temperature;humidity
76750;DHT22;66447;35.844;14.468;2023-04-24T00:03:07;12.93;118.99
76750;DHT22;66447;35.844;14.468;2023-04-24T00:18:09;13.27;118.99
76750;DHT22;66447;35.844;14.468;2023-04-24T00:33:11;13.68;118.99
76750;DHT22;66447;35.844;14.468;2023-04-24T00:48:13;13.66;118.99
76750;DHT22;66447;35.844;14.468;2023-04-24T01:03:15;13.86;118.99
76750;DHT22;66447;35.844;14.468;2023-04-24T01:18:17;14.04;118.99
76750;DHT22;66447;35.844;14.468;2023-04-24T01:33:19;13.65;118.99
76750;DHT22;66447;35.844;14.468;2023-04-24T01:48:22;13.94;118.99
76750;DHT22;66447;35.844;14.468;2023-04-24T02:03:25;14.00;118.99
76750;DHT22;66447;35.844;14.468;2023-04-24T02:18:27;14.10;118.99
76750;DHT22;66447;35.844;14.468;2023-04-24T02:33:28;13.70;118.99
76750;DHT22;66447;35.844;14.468;2023-04-24T02:48:29;14.00;118.99
76750;DHT22;66447;35.844;14.468;2023-04-24T03:03:31;14.12;118.99
76750;DHT22;66447;35.844;14.468;2023-04-24T03:18:33;13.95;118.99
76750;DHT22;66447;35.844;14.468;2023-04-24T03:33:37;13.91;118.99
76750;DHT22;66447;35.844;14.468;2023-04-24T03:48:39;14.92;118.99
76750;DHT22;66447;35.844;14.468;2023-04-24T04:03:41;14.96;118.99
76750;DHT22;66447;35.844;14.468;2023-04-24T04:18:43;14.87;118.99
76750;DHT22;66447;35.844;14.468;2023-04-24T04:33:45;14.81;118.99
76750;DHT22;66447;35.844;14.468;2023-04-24T04:48:46;15.55;118.99
76750;DHT22;66447;35.844;14.468;2023-04-24T05:03:48;15.58;118.99
76750;DHT22;66447;35.844;14.468;2023-04-24T05:18:50;15.52;118.99
76750;DHT22;66447;35.844;14.468;2023-04-24T05:33:52;15.74;118.99
76750;DHT22;66447;35.844;14.468;2023-04-24T05:48:54;16.32;118.99
76750;DHT22;66447;35.844;14.468;2023-04-24T06:03:56;16.89;118.99
76750;DHT22;66447;35.844;14.468;2023-04-24T06:18:58;16.22;118.99
76750;DHT22;66447;35.844;14.468;2023-04-24T06:34:00;17.05;118.99
76750;DHT22;66447;35.844;14.468;2023-04-24T06:49:02;16.66;118.99
76750;DHT22;66447;35.844;14.468;2023-04-24T07:04:04;16.55;118.99
76750;DHT22;66447;35.844;14.468;2023-04-24T07:19:06;17.78;118.99
76750;DHT22;66447;35.844;14.468;2023-04-24T07:34:08;17.10;118.99
76750;DHT22;66447;35.844;14.468;2023-04-24T07:49:10;17.18;118.99
76750;DHT22;66447;35.844;14.468;2023-04-24T08:04:12;16.70;118.99
76750;DHT22;66447;35.844;14.468;2023-04-24T08:19:13;17.89;118.99
76750;DHT22;66447;35.844;14.468;2023-04-24T08:34:15;16.87;118.99
76750;DHT22;66447;35.844;14.468;2023-04-24T08:49:17;16.76;118.99
76750;DHT22;66447;35.844;14.468;2023-04-24T09:04:20;17.11;118.99
76750;DHT22;66447;35.844;14.468;2023-04-24T09:19:23;17.08;118.99
76750;DHT22;66447;35.844;14.468;2023-04-24T09:34:26;17.63;118.99
76750;DHT22;66447;35.844;14.468;2023-04-24T09:49:29;16.58;118.99
76750;DHT22;66447;35.844;14.468;2023-04-24T10:04:31;18.17;118.99
76750;DHT22;66447;35.844;14.468;2023-04-24T10:19:34;17.44;118.99
76750;DHT22;66447;35.844;14.468;2023-04-24T10:34:36;18.23;118.99
76750;DHT22;66447;35.844;14.468;2023-04-24T10:49:39;17.34;118.99
76750;DHT22;66447;35.844;14.468;2023-04-24T11:04:41;16.45;118.99
76750;DHT22;66447;35.844;14.468;2023-04-24T11:19:50;17.48;118.99
76750;DHT22;66447;35.844;14.468;2023-04-24T11:34:54;17.17;118.99
76750;DHT22;66447;35.844;14.468;2023-04-24T11:49:57;18.48;118.99
76750;DHT22;66447;35.844;14.468;2023-04-24T12:04:59;16.77;118.99
76750;DHT22;66447;35.844;14.468;2023-04-24T12:20:05;17.13;118.99
76750;DHT22;66447;35.844;14.468;2023-04-24T12:35:07;16.95;118.99
76750;DHT22;66447;35.844;14.468;2023-04-24T12:50:12;17.44;118.99
76750;DHT22;66447;35.844;14.468;2023-04-24T13:05:14;17.37;118.99
76750;DHT22;66447;35.844;14.468;2023-04-24T13:20:16;16.81;118.99
76750;DHT22;66447;35.844;14.468;2023-04-24T13:35:18;17.18;118.99
76750;DHT22;66447;35.844;14.468;2023-04-24T13:50:20;16.99;118.99
76750;DHT22;66447;35.844;14.468;2023-04-24T14:05:22;16.54;118.99
76750;DHT22;66447;35.844;14.468;2023-04-24T14:20:23;17.18;118.99
76750;DHT22;66447;35.844;14.468;2023-04-24T14:35:25;17.08;118.99
76750;DHT22;66447;35.844;14.468;2023-04-24T14:50:27;16.70;118.99
76750;DHT22;66447;35.844;14.468;2023-04-24T15:05:29;16.01;118.99
76750;DHT22;66447;35.844;14.468;2023-04-24T15:20:31;16.57;118.99
76750;DHT22;66447;35.844;14.468;2023-04-24T15:35:34;16.01;118.99
76750;DHT22;66447;35.844;14.468;2023-04-24T15:50:35;15.52;118.99
76750;DHT22;66447;35.844;14.468;2023-04-24T16:05:37;16.02;118.99
76750;DHT22;66447;35.844;14.468;2023-04-24T16:20:39;15.93;118.99
76750;DHT22;66447;35.844;14.468;2023-04-24T16:35:40;15.18;118.99
76750;DHT22;66447;35.844;14.468;2023-04-24T16:50:43;14.71;118.99
76750;DHT22;66447;35.844;14.468;2023-04-24T17:05:46;14.64;118.99
76750;DHT22;66447;35.844;14.468;2023-04-24T17:20:47;15.28;118.99
76750;DHT22;66447;35.844;14.468;2023-04-24T17:35:49;15.28;118.99
76750;DHT22;66447;35.844;14.468;2023-04-24T17:50:51;15.95;118.99
76750;DHT22;66447;35.844;14.468;2023-04-24T18:05:53;16.76;118.99
76750;DHT22;66447;35.844;14.468;2023-04-24T18:20:54;16.46;118.99
76750;DHT22;66447;35.844;14.468;2023-04-24T18:35:56;17.26;118.99
76750;DHT22;66447;35.844;14.468;2023-04-24T18:50:59;16.89;118.99
76750;DHT22;66447;35.844;14.468;2023-04-24T19:06:01;16.78;118.99
76750;DHT22;66447;35.844;14.468;2023-04-24T19:21:02;16.71;118.99
76750;DHT22;66447;35.844;14.468;2023-04-24T19:36:04;16.36;118.99
76750;DHT22;66447;35.844;14.468;2023-04-24T19:51:05;15.89;118.99
76750;DHT22;66447;35.844;14.468;2023-04-24T20:06:07;16.35;118.99
76750;DHT22;66447;35.844;14.468;2023-04-24T20:21:08;16.04;118.99
76750;DHT22;66447;35.844;14.468;2023-04-24T20:36:10;16.18;118.99
76750;DHT22;66447;35.844;14.468;2023-04-24T20:51:12;16.02;118.99
76750;DHT22;66447;35.844;14.468;2023-04-24T21:06:15;15.90;118.99
76750;DHT22;66447;35.844;14.468;2023-04-24T21:21:16;15.88;118.99
76750;DHT22;66447;35.844;14.468;2023-04-24T21:36:18;16.00;118.99
76750;DHT22;66447;35.844;14.468;2023-04-24T21:51:19;15.78;118.99
76750;DHT22;66447;35.844;14.468;2023-04-24T22:06:21;15.70;118.99
76750;DHT22;66447;35.844;14.468;2023-04-24T22:21:22;15.44;118.99
76750;DHT22;66447;35.844;14.468;2023-04-24T22:36:24;15.24;118.99
76750;DHT22;66447;35.844;14.468;2023-04-24T22:51:26;14.60;118.99
76750;DHT22;66447;35.844;14.468;2023-04-24T23:06:29;14.42;118.99
76750;DHT22;66447;35.844;14.468;2023-04-24T23:21:31;13.77;118.99
76750;DHT22;66447;35.844;14.468;2023-04-24T23:36:33;13.97;118.99
76750;DHT22;66447;35.844;14.468;2023-04-24T23:51:35;14.38;118.99
